Baton Rouge, LA

5:49 AM CDT on September 01, 2015 (GMT -0500)
Sherwood Forest | | Change Station
CLOSE
Current Station
Personal Weather Station
Location: Baton Rouge, LA
Elevation: 75 ft
Nearby Weather Stations

Elev 75 ft 30.45 °N, 91.06 °W | Updated 2 minutes ago

Partly Cloudy
Partly Cloudy
75.4 °F
Feels Like 76 °F
N
0.0
Wind Variable Wind from SW
Gusts 2.0 mph

Today
High -- | Low -- °F
--% Chance of Precip.
Yesterday
High -- | Low -- °F
Precip. -- in
6:40 AM 7:27 PM
Waning Gibbous, 90% visible
Pressure 30.04 in
Visibility 6.0 miles
Clouds Clear
Heat Index 76 °F
Dew Point 69 °F
Humidity 81%
Rainfall 0.00 in
Snow Depth Not available.
UV 0 out of 12
Pollen 8.00 out of 12
Air Quality Not available.
Flu Activity Not available.
METAR KBTR 010953Z 05003KT 6SM BR CLR 23/22 A3004 RMK AO2 SLP170 T02280217
Pressure 30.04 in
Visibility 6.0 miles
Clouds Clear
Heat Index 76 °F
Dew Point 69 °F
Humidity 81%
Rainfall 0.00 in
Snow Depth Not available.
UV 0 out of 12
Pollen 8.00 out of 12
Air Quality Not available.
Flu Activity Not available.
METAR KBTR 010953Z 05003KT 6SM BR CLR 23/22 A3004 RMK AO2 SLP170 T02280217

10-Day Weather Forecast

×

Almanac

Astronomy

Sep. 01, 2015 Rise Set
Actual Time
Civil Twilight
Nautical Twilight
Astronomical Twilight
Moon
Length of Visible Light
Length of Day
Tomorrow will be .
, % of the Moon is Illuminated

Today's Extremes

State Highs State Lows

Community

WunderPhotos

Upload Photos

1,851,501 photos uploaded!

WunderBlogs® & News

Nearby

Air Quality

  Air Quality AQ Index Pollutant
Not available.

Snow Depth

Station Depth Elevation

Earthquake Activity

City Distance Mag. Time & Date
Minimum magnitude displayed is 2.5.

Coastal Water Temperatures

Place Temperature

Stations

Nearby Weather Stations

Station Location Temp. Windchill Dew Point Humidity Wind Precip. Elev Updated Type